sensor_id;sensor_type;location;lat;lon;timestamp;temperature;humidity
18456;DHT22;9357;49.900;8.208;2023-05-17T00:00:40;11.00;99.90
18456;DHT22;9357;49.900;8.208;2023-05-17T00:02:13;11.00;99.90
18456;DHT22;9357;49.900;8.208;2023-05-17T00:03:46;11.00;99.90
18456;DHT22;9357;49.900;8.208;2023-05-17T00:05:18;10.90;99.90
18456;DHT22;9357;49.900;8.208;2023-05-17T00:06:52;10.90;99.90
18456;DHT22;9357;49.900;8.208;2023-05-17T00:08:25;11.00;99.90
18456;DHT22;9357;49.900;8.208;2023-05-17T00:09:58;11.00;99.90
18456;DHT22;9357;49.900;8.208;2023-05-17T00:11:31;11.00;99.90
18456;DHT22;9357;49.900;8.208;2023-05-17T00:13:03;11.00;99.90
18456;DHT22;9357;49.900;8.208;2023-05-17T00:14:36;11.00;99.90
18456;DHT22;9357;49.900;8.208;2023-05-17T00:16:11;11.00;99.90
18456;DHT22;9357;49.900;8.208;2023-05-17T00:17:44;11.00;99.90
18456;DHT22;9357;49.900;8.208;2023-05-17T00:19:17;11.00;99.90
18456;DHT22;9357;49.900;8.208;2023-05-17T00:20:50;11.00;99.90
18456;DHT22;9357;49.900;8.208;2023-05-17T00:22:24;10.90;99.90
18456;DHT22;9357;49.900;8.208;2023-05-17T00:23:57;10.90;99.90
18456;DHT22;9357;49.900;8.208;2023-05-17T00:25:29;10.90;99.90
18456;DHT22;9357;49.900;8.208;2023-05-17T00:27:02;10.90;99.90
18456;DHT22;9357;49.900;8.208;2023-05-17T00:28:35;10.90;99.90
18456;DHT22;9357;49.900;8.208;2023-05-17T00:30:08;10.90;99.90
18456;DHT22;9357;49.900;8.208;2023-05-17T00:31:41;10.90;99.90
18456;DHT22;9357;49.900;8.208;2023-05-17T00:33:14;10.90;99.90
18456;DHT22;9357;49.900;8.208;2023-05-17T00:34:46;10.80;99.90
18456;DHT22;9357;49.900;8.208;2023-05-17T00:36:19;10.80;99.90
18456;DHT22;9357;49.900;8.208;2023-05-17T00:37:53;10.80;99.90
18456;DHT22;9357;49.900;8.208;2023-05-17T00:39:25;10.80;99.90
18456;DHT22;9357;49.900;8.208;2023-05-17T00:40:58;10.70;99.90
18456;DHT22;9357;49.900;8.208;2023-05-17T00:42:31;10.70;99.90
18456;DHT22;9357;49.900;8.208;2023-05-17T00:44:04;10.60;99.90
18456;DHT22;9357;49.900;8.208;2023-05-17T00:45:37;10.60;99.90
18456;DHT22;9357;49.900;8.208;2023-05-17T00:47:09;10.60;99.90
18456;DHT22;9357;49.900;8.208;2023-05-17T00:48:42;10.60;99.90
18456;DHT22;9357;49.900;8.208;2023-05-17T00:50:15;10.60;99.90
18456;DHT22;9357;49.900;8.208;2023-05-17T00:51:48;10.50;99.90
18456;DHT22;9357;49.900;8.208;2023-05-17T00:53:23;10.50;99.90
18456;DHT22;9357;49.900;8.208;2023-05-17T00:54:56;10.50;99.90
18456;DHT22;9357;49.900;8.208;2023-05-17T00:56:29;10.50;99.90
18456;DHT22;9357;49.900;8.208;2023-05-17T00:58:02;10.40;99.90
18456;DHT22;9357;49.900;8.208;2023-05-17T00:59:35;10.40;99.90
18456;DHT22;9357;49.900;8.208;2023-05-17T01:01:08;10.40;99.90
18456;DHT22;9357;49.900;8.208;2023-05-17T01:02:41;10.40;99.90
18456;DHT22;9357;49.900;8.208;2023-05-17T01:04:15;10.40;99.90
18456;DHT22;9357;49.900;8.208;2023-05-17T01:05:48;10.30;99.90
18456;DHT22;9357;49.900;8.208;2023-05-17T01:07:21;10.30;99.90
18456;DHT22;9357;49.900;8.208;2023-05-17T01:08:55;10.30;99.90
18456;DHT22;9357;49.900;8.208;2023-05-17T01:10:34;10.40;99.90
18456;DHT22;9357;49.900;8.208;2023-05-17T01:12:20;10.30;99.90
18456;DHT22;9357;49.900;8.208;2023-05-17T01:14:01;10.30;99.90
18456;DHT22;9357;49.900;8.208;2023-05-17T01:15:40;10.30;99.90
18456;DHT22;9357;49.900;8.208;2023-05-17T01:17:16;10.30;99.90
18456;DHT22;9357;49.900;8.208;2023-05-17T01:18:55;10.30;99.90
18456;DHT22;9357;49.900;8.208;2023-05-17T01:20:32;10.30;99.90
18456;DHT22;9357;49.900;8.208;2023-05-17T01:22:16;10.30;99.90
18456;DHT22;9357;49.900;8.208;2023-05-17T01:23:58;10.20;99.90
18456;DHT22;9357;49.900;8.208;2023-05-17T01:25:41;10.20;99.90
18456;DHT22;9357;49.900;8.208;2023-05-17T01:27:19;10.20;99.90
18456;DHT22;9357;49.900;8.208;2023-05-17T01:28:52;10.10;99.90
18456;DHT22;9357;49.900;8.208;2023-05-17T01:30:28;10.20;99.90
18456;DHT22;9357;49.900;8.208;2023-05-17T01:32:02;10.10;99.90
18456;DHT22;9357;49.900;8.208;2023-05-17T01:33:37;10.10;99.90
18456;DHT22;9357;49.900;8.208;2023-05-17T01:35:11;10.00;99.90
18456;DHT22;9357;49.900;8.208;2023-05-17T01:36:44;10.10;99.90
18456;DHT22;9357;49.900;8.208;2023-05-17T01:38:16;10.10;99.90
18456;DHT22;9357;49.900;8.208;2023-05-17T01:39:49;10.10;99.90
18456;DHT22;9357;49.900;8.208;2023-05-17T01:41:26;10.10;99.90
18456;DHT22;9357;49.900;8.208;2023-05-17T01:43:07;10.10;99.90
18456;DHT22;9357;49.900;8.208;2023-05-17T01:44:45;10.10;99.90
18456;DHT22;9357;49.900;8.208;2023-05-17T01:46:25;10.10;99.90
18456;DHT22;9357;49.900;8.208;2023-05-17T01:48:05;10.00;99.90
18456;DHT22;9357;49.900;8.208;2023-05-17T01:49:47;10.00;99.90
18456;DHT22;9357;49.900;8.208;2023-05-17T01:51:22;10.00;99.90
18456;DHT22;9357;49.900;8.208;2023-05-17T01:53:02;10.00;99.90
18456;DHT22;9357;49.900;8.208;2023-05-17T01:54:42;9.90;99.90
18456;DHT22;9357;49.900;8.208;2023-05-17T01:56:20;9.90;99.90
18456;DHT22;9357;49.900;8.208;2023-05-17T01:57:58;9.80;99.90
18456;DHT22;9357;49.900;8.208;2023-05-17T01:59:36;9.80;99.90
18456;DHT22;9357;49.900;8.208;2023-05-17T02:01:10;9.70;99.90
18456;DHT22;9357;49.900;8.208;2023-05-17T02:02:44;9.70;99.90
18456;DHT22;9357;49.900;8.208;2023-05-17T02:04:17;9.70;99.90
18456;DHT22;9357;49.900;8.208;2023-05-17T02:05:50;9.60;99.90
18456;DHT22;9357;49.900;8.208;2023-05-17T02:07:23;9.60;99.90
18456;DHT22;9357;49.900;8.208;2023-05-17T02:08:56;9.60;99.90
18456;DHT22;9357;49.900;8.208;2023-05-17T02:10:29;9.60;99.90
18456;DHT22;9357;49.900;8.208;2023-05-17T02:12:02;9.60;99.90
18456;DHT22;9357;49.900;8.208;2023-05-17T02:13:34;9.60;99.90
18456;DHT22;9357;49.900;8.208;2023-05-17T02:15:09;9.60;99.90
18456;DHT22;9357;49.900;8.208;2023-05-17T02:16:42;9.50;99.90
18456;DHT22;9357;49.900;8.208;2023-05-17T02:18:15;9.50;99.90
18456;DHT22;9357;49.900;8.208;2023-05-17T02:19:48;9.50;99.90
18456;DHT22;9357;49.900;8.208;2023-05-17T02:21:20;9.50;99.90
18456;DHT22;9357;49.900;8.208;2023-05-17T02:22:52;9.40;99.90
18456;DHT22;9357;49.900;8.208;2023-05-17T02:24:25;9.40;99.90
18456;DHT22;9357;49.900;8.208;2023-05-17T02:25:57;9.40;99.90
18456;DHT22;9357;49.900;8.208;2023-05-17T02:27:30;9.40;99.90
18456;DHT22;9357;49.900;8.208;2023-05-17T02:29:03;9.50;99.90
18456;DHT22;9357;49.900;8.208;2023-05-17T02:30:37;9.40;99.90
18456;DHT22;9357;49.900;8.208;2023-05-17T02:32:11;9.40;99.90
18456;DHT22;9357;49.900;8.208;2023-05-17T02:33:44;9.50;99.90
18456;DHT22;9357;49.900;8.208;2023-05-17T02:35:16;9.40;99.90
18456;DHT22;9357;49.900;8.208;2023-05-17T02:36:49;9.40;99.90
18456;DHT22;9357;49.900;8.208;2023-05-17T02:38:21;9.40;99.90
18456;DHT22;9357;49.900;8.208;2023-05-17T02:39:55;9.40;99.90
18456;DHT22;9357;49.900;8.208;2023-05-17T02:41:27;9.40;99.90
18456;DHT22;9357;49.900;8.208;2023-05-17T02:42:59;9.40;99.90
18456;DHT22;9357;49.900;8.208;2023-05-17T02:44:32;9.40;99.90
18456;DHT22;9357;49.900;8.208;2023-05-17T02:46:07;9.40;99.90
18456;DHT22;9357;49.900;8.208;2023-05-17T02:47:39;9.40;99.90
18456;DHT22;9357;49.900;8.208;2023-05-17T02:49:12;9.40;99.90
18456;DHT22;9357;49.900;8.208;2023-05-17T02:50:44;9.40;99.90
18456;DHT22;9357;49.900;8.208;2023-05-17T02:52:16;9.50;99.90
18456;DHT22;9357;49.900;8.208;2023-05-17T02:53:49;9.40;99.90
18456;DHT22;9357;49.900;8.208;2023-05-17T02:55:22;9.40;99.90
18456;DHT22;9357;49.900;8.208;2023-05-17T02:56:54;9.40;99.90
18456;DHT22;9357;49.900;8.208;2023-05-17T02:58:27;9.30;99.90
18456;DHT22;9357;49.900;8.208;2023-05-17T02:59:59;9.40;99.90
18456;DHT22;9357;49.900;8.208;2023-05-17T03:01:33;9.40;99.90
18456;DHT22;9357;49.900;8.208;2023-05-17T03:03:05;9.40;99.90
18456;DHT22;9357;49.900;8.208;2023-05-17T03:04:38;9.40;99.90
18456;DHT22;9357;49.900;8.208;2023-05-17T03:06:11;9.40;99.90
18456;DHT22;9357;49.900;8.208;2023-05-17T03:07:44;9.40;99.90
18456;DHT22;9357;49.900;8.208;2023-05-17T03:09:17;9.40;99.90
18456;DHT22;9357;49.900;8.208;2023-05-17T03:10:50;9.40;99.90
18456;DHT22;9357;49.900;8.208;2023-05-17T03:12:23;9.40;99.90
18456;DHT22;9357;49.900;8.208;2023-05-17T03:13:57;9.50;99.90
18456;DHT22;9357;49.900;8.208;2023-05-17T03:15:30;9.50;99.90
18456;DHT22;9357;49.900;8.208;2023-05-17T03:17:04;9.50;99.90
18456;DHT22;9357;49.900;8.208;2023-05-17T03:18:37;9.50;99.90
18456;DHT22;9357;49.900;8.208;2023-05-17T03:20:09;9.50;99.90
18456;DHT22;9357;49.900;8.208;2023-05-17T03:21:42;9.50;99.90
18456;DHT22;9357;49.900;8.208;2023-05-17T03:23:15;9.50;99.90
18456;DHT22;9357;49.900;8.208;2023-05-17T03:24:47;9.40;99.90
18456;DHT22;9357;49.900;8.208;2023-05-17T03:26:20;9.50;99.90
18456;DHT22;9357;49.900;8.208;2023-05-17T03:27:54;9.40;99.90
18456;DHT22;9357;49.900;8.208;2023-05-17T03:29:27;9.40;99.90
18456;DHT22;9357;49.900;8.208;2023-05-17T03:31:00;9.40;99.90
18456;DHT22;9357;49.900;8.208;2023-05-17T03:32:34;9.40;99.90
18456;DHT22;9357;49.900;8.208;2023-05-17T03:34:09;9.40;99.90
18456;DHT22;9357;49.900;8.208;2023-05-17T03:35:42;9.40;99.90
18456;DHT22;9357;49.900;8.208;2023-05-17T03:37:14;9.40;99.90
18456;DHT22;9357;49.900;8.208;2023-05-17T03:38:46;9.40;99.90
18456;DHT22;9357;49.900;8.208;2023-05-17T03:40:19;9.40;99.90
18456;DHT22;9357;49.900;8.208;2023-05-17T03:41:51;9.40;99.90
18456;DHT22;9357;49.900;8.208;2023-05-17T03:43:24;9.40;99.90
18456;DHT22;9357;49.900;8.208;2023-05-17T03:44:56;9.40;99.90
18456;DHT22;9357;49.900;8.208;2023-05-17T03:46:29;9.40;99.90
18456;DHT22;9357;49.900;8.208;2023-05-17T03:48:04;9.40;99.90
18456;DHT22;9357;49.900;8.208;2023-05-17T03:49:37;9.40;99.90
18456;DHT22;9357;49.900;8.208;2023-05-17T03:51:09;9.40;99.90
18456;DHT22;9357;49.900;8.208;2023-05-17T03:52:42;9.40;99.90
18456;DHT22;9357;49.900;8.208;2023-05-17T03:54:16;9.40;99.90
18456;DHT22;9357;49.900;8.208;2023-05-17T03:55:49;9.40;99.90
18456;DHT22;9357;49.900;8.208;2023-05-17T03:57:22;9.40;99.90
18456;DHT22;9357;49.900;8.208;2023-05-17T03:58:55;9.30;99.90
18456;DHT22;9357;49.900;8.208;2023-05-17T04:00:27;9.30;99.90
18456;DHT22;9357;49.900;8.208;2023-05-17T04:01:59;9.30;99.90
18456;DHT22;9357;49.900;8.208;2023-05-17T04:03:33;9.30;99.90
18456;DHT22;9357;49.900;8.208;2023-05-17T04:05:08;9.20;99.90
18456;DHT22;9357;49.900;8.208;2023-05-17T04:06:41;9.30;99.90
18456;DHT22;9357;49.900;8.208;2023-05-17T04:08:14;9.30;99.90
18456;DHT22;9357;49.900;8.208;2023-05-17T04:09:46;9.30;99.90
18456;DHT22;9357;49.900;8.208;2023-05-17T04:11:19;9.20;99.90
18456;DHT22;9357;49.900;8.208;2023-05-17T04:12:54;9.20;99.90
18456;DHT22;9357;49.900;8.208;2023-05-17T04:14:27;9.20;99.90
18456;DHT22;9357;49.900;8.208;2023-05-17T04:16:00;9.20;99.90
18456;DHT22;9357;49.900;8.208;2023-05-17T04:17:32;9.20;99.90
18456;DHT22;9357;49.900;8.208;2023-05-17T04:19:07;9.20;99.90
18456;DHT22;9357;49.900;8.208;2023-05-17T04:20:39;9.20;99.90
18456;DHT22;9357;49.900;8.208;2023-05-17T04:22:11;9.20;99.90
18456;DHT22;9357;49.900;8.208;2023-05-17T04:23:43;9.30;99.90
18456;DHT22;9357;49.900;8.208;2023-05-17T04:25:16;9.30;99.90
18456;DHT22;9357;49.900;8.208;2023-05-17T04:26:49;9.30;99.90
18456;DHT22;9357;49.900;8.208;2023-05-17T04:28:22;9.30;99.90
18456;DHT22;9357;49.900;8.208;2023-05-17T04:29:55;9.30;99.90
18456;DHT22;9357;49.900;8.208;2023-05-17T04:31:28;9.30;99.90
18456;DHT22;9357;49.900;8.208;2023-05-17T04:33:01;9.30;99.90
18456;DHT22;9357;49.900;8.208;2023-05-17T04:34:35;9.30;99.90
18456;DHT22;9357;49.900;8.208;2023-05-17T04:36:07;9.30;99.90
18456;DHT22;9357;49.900;8.208;2023-05-17T04:37:40;9.30;99.90
18456;DHT22;9357;49.900;8.208;2023-05-17T04:39:13;9.30;99.90
18456;DHT22;9357;49.900;8.208;2023-05-17T04:40:46;9.40;99.90
18456;DHT22;9357;49.900;8.208;2023-05-17T04:42:19;9.30;99.90
18456;DHT22;9357;49.900;8.208;2023-05-17T04:43:52;9.40;99.90
18456;DHT22;9357;49.900;8.208;2023-05-17T04:45:24;9.40;99.90
18456;DHT22;9357;49.900;8.208;2023-05-17T04:46:57;9.40;99.90
18456;DHT22;9357;49.900;8.208;2023-05-17T04:48:30;9.40;99.90
18456;DHT22;9357;49.900;8.208;2023-05-17T04:50:05;9.30;99.90
18456;DHT22;9357;49.900;8.208;2023-05-17T04:51:37;9.30;99.90
18456;DHT22;9357;49.900;8.208;2023-05-17T04:53:10;9.40;99.90
18456;DHT22;9357;49.900;8.208;2023-05-17T04:54:43;9.40;99.90
18456;DHT22;9357;49.900;8.208;2023-05-17T04:56:15;9.40;99.90
18456;DHT22;9357;49.900;8.208;2023-05-17T04:57:48;9.40;99.90
18456;DHT22;9357;49.900;8.208;2023-05-17T04:59:21;9.40;99.90
18456;DHT22;9357;49.900;8.208;2023-05-17T05:00:54;9.40;99.90
18456;DHT22;9357;49.900;8.208;2023-05-17T05:02:26;9.40;99.90
18456;DHT22;9357;49.900;8.208;2023-05-17T05:03:58;9.40;99.90
18456;DHT22;9357;49.900;8.208;2023-05-17T05:05:33;9.40;99.90
18456;DHT22;9357;49.900;8.208;2023-05-17T05:07:06;9.40;99.90
18456;DHT22;9357;49.900;8.208;2023-05-17T05:08:38;9.50;99.90
18456;DHT22;9357;49.900;8.208;2023-05-17T05:10:12;9.50;99.90
18456;DHT22;9357;49.900;8.208;2023-05-17T05:11:45;9.50;99.90
18456;DHT22;9357;49.900;8.208;2023-05-17T05:13:17;9.50;99.90
18456;DHT22;9357;49.900;8.208;2023-05-17T05:14:50;9.50;99.90
18456;DHT22;9357;49.900;8.208;2023-05-17T05:16:23;9.50;99.90
18456;DHT22;9357;49.900;8.208;2023-05-17T05:17:56;9.60;99.90
18456;DHT22;9357;49.900;8.208;2023-05-17T05:19:28;9.60;99.90
18456;DHT22;9357;49.900;8.208;2023-05-17T05:21:02;9.70;99.90
18456;DHT22;9357;49.900;8.208;2023-05-17T05:22:35;9.70;99.90
18456;DHT22;9357;49.900;8.208;2023-05-17T05:24:07;9.70;99.90
18456;DHT22;9357;49.900;8.208;2023-05-17T05:25:40;9.70;99.90
18456;DHT22;9357;49.900;8.208;2023-05-17T05:27:14;9.70;99.90
18456;DHT22;9357;49.900;8.208;2023-05-17T05:28:47;9.80;99.90
18456;DHT22;9357;49.900;8.208;2023-05-17T05:30:20;9.80;99.90
18456;DHT22;9357;49.900;8.208;2023-05-17T05:31:53;9.80;99.90
18456;DHT22;9357;49.900;8.208;2023-05-17T05:33:26;9.90;99.90
18456;DHT22;9357;49.900;8.208;2023-05-17T05:34:59;9.90;99.90
18456;DHT22;9357;49.900;8.208;2023-05-17T05:36:33;9.90;99.90
18456;DHT22;9357;49.900;8.208;2023-05-17T05:38:06;10.00;99.90
18456;DHT22;9357;49.900;8.208;2023-05-17T05:39:42;10.00;99.90
18456;DHT22;9357;49.900;8.208;2023-05-17T05:41:14;10.00;99.90
18456;DHT22;9357;49.900;8.208;2023-05-17T05:42:47;10.00;99.90
18456;DHT22;9357;49.900;8.208;2023-05-17T05:44:20;10.10;99.90
18456;DHT22;9357;49.900;8.208;2023-05-17T05:45:56;10.10;99.90
18456;DHT22;9357;49.900;8.208;2023-05-17T05:47:29;10.20;99.90
18456;DHT22;9357;49.900;8.208;2023-05-17T05:49:01;10.20;99.90
18456;DHT22;9357;49.900;8.208;2023-05-17T05:50:34;10.20;99.90
18456;DHT22;9357;49.900;8.208;2023-05-17T05:52:09;10.30;99.90
18456;DHT22;9357;49.900;8.208;2023-05-17T05:53:41;10.30;99.90
18456;DHT22;9357;49.900;8.208;2023-05-17T05:55:14;10.30;99.90
18456;DHT22;9357;49.900;8.208;2023-05-17T05:56:47;10.40;99.90
18456;DHT22;9357;49.900;8.208;2023-05-17T05:58:21;10.40;99.90
18456;DHT22;9357;49.900;8.208;2023-05-17T05:59:54;10.50;99.90
18456;DHT22;9357;49.900;8.208;2023-05-17T06:01:27;10.60;99.90
18456;DHT22;9357;49.900;8.208;2023-05-17T06:03:00;10.60;99.90
18456;DHT22;9357;49.900;8.208;2023-05-17T06:04:33;10.70;99.90
18456;DHT22;9357;49.900;8.208;2023-05-17T06:06:16;10.80;99.90
18456;DHT22;9357;49.900;8.208;2023-05-17T06:07:51;10.80;99.90
18456;DHT22;9357;49.900;8.208;2023-05-17T06:09:24;10.90;99.90
18456;DHT22;9357;49.900;8.208;2023-05-17T06:10:56;11.00;99.90
18456;DHT22;9357;49.900;8.208;2023-05-17T06:12:29;11.10;99.90
18456;DHT22;9357;49.900;8.208;2023-05-17T06:14:02;11.20;99.90
18456;DHT22;9357;49.900;8.208;2023-05-17T06:15:35;11.30;99.90
18456;DHT22;9357;49.900;8.208;2023-05-17T06:17:08;11.30;99.90
18456;DHT22;9357;49.900;8.208;2023-05-17T06:18:40;11.50;99.90
18456;DHT22;9357;49.900;8.208;2023-05-17T06:20:13;11.60;99.90
18456;DHT22;9357;49.900;8.208;2023-05-17T06:21:47;11.70;99.90
18456;DHT22;9357;49.900;8.208;2023-05-17T06:23:21;11.90;99.90
18456;DHT22;9357;49.900;8.208;2023-05-17T06:24:53;12.20;99.90
18456;DHT22;9357;49.900;8.208;2023-05-17T06:26:26;12.40;99.90
18456;DHT22;9357;49.900;8.208;2023-05-17T06:27:59;12.60;99.90
18456;DHT22;9357;49.900;8.208;2023-05-17T06:29:33;12.90;99.90
18456;DHT22;9357;49.900;8.208;2023-05-17T06:31:06;13.10;99.90
18456;DHT22;9357;49.900;8.208;2023-05-17T06:32:38;13.40;99.90
18456;DHT22;9357;49.900;8.208;2023-05-17T06:34:12;13.60;99.90
18456;DHT22;9357;49.900;8.208;2023-05-17T06:35:45;13.80;99.90
18456;DHT22;9357;49.900;8.208;2023-05-17T06:37:27;14.00;99.90
18456;DHT22;9357;49.900;8.208;2023-05-17T06:39:02;14.20;99.90
18456;DHT22;9357;49.900;8.208;2023-05-17T06:40:35;14.30;99.90
18456;DHT22;9357;49.900;8.208;2023-05-17T06:42:08;14.30;99.90
18456;DHT22;9357;49.900;8.208;2023-05-17T06:43:40;14.30;99.90
18456;DHT22;9357;49.900;8.208;2023-05-17T06:45:13;14.40;99.90
18456;DHT22;9357;49.900;8.208;2023-05-17T06:46:46;14.50;99.90
18456;DHT22;9357;49.900;8.208;2023-05-17T06:48:19;14.60;99.90
18456;DHT22;9357;49.900;8.208;2023-05-17T06:49:52;14.90;99.90
18456;DHT22;9357;49.900;8.208;2023-05-17T06:51:24;15.10;99.90
18456;DHT22;9357;49.900;8.208;2023-05-17T06:52:57;15.30;99.90
18456;DHT22;9357;49.900;8.208;2023-05-17T06:54:31;15.30;99.90
18456;DHT22;9357;49.900;8.208;2023-05-17T06:56:04;15.20;99.90
18456;DHT22;9357;49.900;8.208;2023-05-17T06:57:37;15.10;99.90
18456;DHT22;9357;49.900;8.208;2023-05-17T06:59:10;15.10;99.90
18456;DHT22;9357;49.900;8.208;2023-05-17T07:00:43;15.00;99.90
18456;DHT22;9357;49.900;8.208;2023-05-17T07:02:16;14.80;99.90
18456;DHT22;9357;49.900;8.208;2023-05-17T07:03:49;14.70;99.90
18456;DHT22;9357;49.900;8.208;2023-05-17T07:05:22;14.60;99.90
18456;DHT22;9357;49.900;8.208;2023-05-17T07:06:55;14.60;99.90
18456;DHT22;9357;49.900;8.208;2023-05-17T07:08:28;14.50;99.90
18456;DHT22;9357;49.900;8.208;2023-05-17T07:10:02;14.50;99.90
18456;DHT22;9357;49.900;8.208;2023-05-17T07:11:35;14.40;99.90
18456;DHT22;9357;49.900;8.208;2023-05-17T07:13:08;14.40;99.90
18456;DHT22;9357;49.900;8.208;2023-05-17T07:14:40;14.30;99.90
18456;DHT22;9357;49.900;8.208;2023-05-17T07:16:13;14.20;99.90
18456;DHT22;9357;49.900;8.208;2023-05-17T07:17:46;14.30;99.90
18456;DHT22;9357;49.900;8.208;2023-05-17T07:19:19;14.40;99.90
18456;DHT22;9357;49.900;8.208;2023-05-17T07:20:52;14.40;99.90
18456;DHT22;9357;49.900;8.208;2023-05-17T07:22:25;14.30;99.90
18456;DHT22;9357;49.900;8.208;2023-05-17T07:23:57;14.40;99.90
18456;DHT22;9357;49.900;8.208;2023-05-17T07:25:35;14.50;99.90
18456;DHT22;9357;49.900;8.208;2023-05-17T07:27:12;14.50;99.90
18456;DHT22;9357;49.900;8.208;2023-05-17T07:28:44;14.70;99.90
18456;DHT22;9357;49.900;8.208;2023-05-17T07:30:17;14.90;99.90
18456;DHT22;9357;49.900;8.208;2023-05-17T07:31:50;15.00;99.90
18456;DHT22;9357;49.900;8.208;2023-05-17T07:33:23;15.10;99.90
18456;DHT22;9357;49.900;8.208;2023-05-17T07:34:56;15.20;99.90
18456;DHT22;9357;49.900;8.208;2023-05-17T07:36:29;15.30;99.90
18456;DHT22;9357;49.900;8.208;2023-05-17T07:38:02;15.20;99.90
18456;DHT22;9357;49.900;8.208;2023-05-17T07:39:34;15.10;99.90
18456;DHT22;9357;49.900;8.208;2023-05-17T07:41:09;15.00;99.90
18456;DHT22;9357;49.900;8.208;2023-05-17T07:42:44;14.90;99.90
18456;DHT22;9357;49.900;8.208;2023-05-17T07:44:17;14.80;99.90
18456;DHT22;9357;49.900;8.208;2023-05-17T07:45:49;14.70;99.90
18456;DHT22;9357;49.900;8.208;2023-05-17T07:47:22;14.70;99.90
18456;DHT22;9357;49.900;8.208;2023-05-17T07:48:57;14.60;99.90
18456;DHT22;9357;49.900;8.208;2023-05-17T07:50:30;14.50;99.90
18456;DHT22;9357;49.900;8.208;2023-05-17T07:52:04;14.30;99.90
18456;DHT22;9357;49.900;8.208;2023-05-17T07:53:36;14.20;99.90
18456;DHT22;9357;49.900;8.208;2023-05-17T07:55:09;14.10;99.90
18456;DHT22;9357;49.900;8.208;2023-05-17T07:56:44;14.00;99.90
18456;DHT22;9357;49.900;8.208;2023-05-17T07:58:17;13.90;99.90
18456;DHT22;9357;49.900;8.208;2023-05-17T07:59:49;13.90;99.90
18456;DHT22;9357;49.900;8.208;2023-05-17T08:01:22;14.00;99.90
18456;DHT22;9357;49.900;8.208;2023-05-17T08:02:55;14.10;99.90
18456;DHT22;9357;49.900;8.208;2023-05-17T08:04:28;14.20;99.90
18456;DHT22;9357;49.900;8.208;2023-05-17T08:06:01;14.30;99.90
18456;DHT22;9357;49.900;8.208;2023-05-17T08:07:34;14.40;99.90
18456;DHT22;9357;49.900;8.208;2023-05-17T08:09:07;14.40;99.90
18456;DHT22;9357;49.900;8.208;2023-05-17T08:10:41;14.50;99.90
18456;DHT22;9357;49.900;8.208;2023-05-17T08:12:15;14.60;99.90
18456;DHT22;9357;49.900;8.208;2023-05-17T08:13:48;14.60;99.90
18456;DHT22;9357;49.900;8.208;2023-05-17T08:15:21;14.60;99.90
18456;DHT22;9357;49.900;8.208;2023-05-17T08:16:54;14.70;99.90
18456;DHT22;9357;49.900;8.208;2023-05-17T08:18:27;14.70;99.90
18456;DHT22;9357;49.900;8.208;2023-05-17T08:20:00;14.80;99.90
18456;DHT22;9357;49.900;8.208;2023-05-17T08:21:33;14.80;99.90
18456;DHT22;9357;49.900;8.208;2023-05-17T08:23:07;14.80;99.90
18456;DHT22;9357;49.900;8.208;2023-05-17T08:24:40;14.80;99.90
18456;DHT22;9357;49.900;8.208;2023-05-17T08:26:15;14.80;99.90
18456;DHT22;9357;49.900;8.208;2023-05-17T08:27:50;14.80;99.90
18456;DHT22;9357;49.900;8.208;2023-05-17T08:29:23;14.70;99.90
18456;DHT22;9357;49.900;8.208;2023-05-17T08:30:57;14.70;99.90
18456;DHT22;9357;49.900;8.208;2023-05-17T08:32:29;14.60;99.90
18456;DHT22;9357;49.900;8.208;2023-05-17T08:34:02;14.60;99.90
18456;DHT22;9357;49.900;8.208;2023-05-17T08:35:37;14.60;99.90
18456;DHT22;9357;49.900;8.208;2023-05-17T08:37:10;14.60;99.90
18456;DHT22;9357;49.900;8.208;2023-05-17T08:38:43;14.60;99.90
18456;DHT22;9357;49.900;8.208;2023-05-17T08:40:17;14.60;99.90
18456;DHT22;9357;49.900;8.208;2023-05-17T08:41:52;14.50;99.90
18456;DHT22;9357;49.900;8.208;2023-05-17T08:43:31;14.50;99.90
18456;DHT22;9357;49.900;8.208;2023-05-17T08:45:05;14.40;99.90
18456;DHT22;9357;49.900;8.208;2023-05-17T08:46:39;14.30;99.90
18456;DHT22;9357;49.900;8.208;2023-05-17T08:48:13;14.30;99.90
18456;DHT22;9357;49.900;8.208;2023-05-17T08:49:48;14.30;99.90
18456;DHT22;9357;49.900;8.208;2023-05-17T08:51:21;14.30;99.90
18456;DHT22;9357;49.900;8.208;2023-05-17T08:52:55;14.30;99.90
18456;DHT22;9357;49.900;8.208;2023-05-17T08:54:28;14.20;99.90
18456;DHT22;9357;49.900;8.208;2023-05-17T08:56:02;14.30;99.90
18456;DHT22;9357;49.900;8.208;2023-05-17T08:57:37;14.40;99.90
18456;DHT22;9357;49.900;8.208;2023-05-17T08:59:12;14.50;99.90
18456;DHT22;9357;49.900;8.208;2023-05-17T09:00:45;14.50;99.90
18456;DHT22;9357;49.900;8.208;2023-05-17T09:02:19;14.60;99.90
18456;DHT22;9357;49.900;8.208;2023-05-17T09:03:53;14.60;99.90
18456;DHT22;9357;49.900;8.208;2023-05-17T09:05:26;14.60;99.90
18456;DHT22;9357;49.900;8.208;2023-05-17T09:06:59;14.80;99.90
18456;DHT22;9357;49.900;8.208;2023-05-17T09:08:32;14.80;99.90
18456;DHT22;9357;49.900;8.208;2023-05-17T09:10:06;14.90;99.90
18456;DHT22;9357;49.900;8.208;2023-05-17T09:11:39;15.00;99.90
18456;DHT22;9357;49.900;8.208;2023-05-17T09:13:12;15.00;99.90
18456;DHT22;9357;49.900;8.208;2023-05-17T09:14:46;15.10;99.90
18456;DHT22;9357;49.900;8.208;2023-05-17T09:16:19;15.00;99.90
18456;DHT22;9357;49.900;8.208;2023-05-17T09:17:53;15.00;99.90
18456;DHT22;9357;49.900;8.208;2023-05-17T09:19:26;14.90;99.90
18456;DHT22;9357;49.900;8.208;2023-05-17T09:21:01;14.90;99.90
18456;DHT22;9357;49.900;8.208;2023-05-17T09:22:36;14.90;99.90
18456;DHT22;9357;49.900;8.208;2023-05-17T09:24:09;15.00;99.90
18456;DHT22;9357;49.900;8.208;2023-05-17T09:25:46;15.10;99.90
18456;DHT22;9357;49.900;8.208;2023-05-17T09:27:19;15.20;99.90
18456;DHT22;9357;49.900;8.208;2023-05-17T09:28:52;15.40;99.90
18456;DHT22;9357;49.900;8.208;2023-05-17T09:30:30;15.60;99.90
18456;DHT22;9357;49.900;8.208;2023-05-17T09:32:13;15.70;99.90
18456;DHT22;9357;49.900;8.208;2023-05-17T09:33:47;15.70;99.90
18456;DHT22;9357;49.900;8.208;2023-05-17T09:35:26;15.80;99.90
18456;DHT22;9357;49.900;8.208;2023-05-17T09:37:00;15.90;99.90
18456;DHT22;9357;49.900;8.208;2023-05-17T09:38:34;15.90;99.90
18456;DHT22;9357;49.900;8.208;2023-05-17T09:40:08;15.90;99.90
18456;DHT22;9357;49.900;8.208;2023-05-17T09:41:42;16.10;99.90
18456;DHT22;9357;49.900;8.208;2023-05-17T09:43:22;16.30;99.90
18456;DHT22;9357;49.900;8.208;2023-05-17T09:44:55;16.50;99.90
18456;DHT22;9357;49.900;8.208;2023-05-17T09:46:33;16.60;99.90
18456;DHT22;9357;49.900;8.208;2023-05-17T09:48:11;16.70;99.90
18456;DHT22;9357;49.900;8.208;2023-05-17T09:49:45;16.60;99.90
18456;DHT22;9357;49.900;8.208;2023-05-17T09:51:17;16.60;99.90
18456;DHT22;9357;49.900;8.208;2023-05-17T09:52:50;16.60;99.90
18456;DHT22;9357;49.900;8.208;2023-05-17T09:54:23;16.70;99.90
18456;DHT22;9357;49.900;8.208;2023-05-17T09:55:57;16.70;99.90
18456;DHT22;9357;49.900;8.208;2023-05-17T09:57:36;16.60;99.90
18456;DHT22;9357;49.900;8.208;2023-05-17T09:59:14;16.60;99.90
18456;DHT22;9357;49.900;8.208;2023-05-17T10:00:51;16.60;99.90
18456;DHT22;9357;49.900;8.208;2023-05-17T10:02:27;16.60;99.90
18456;DHT22;9357;49.900;8.208;2023-05-17T10:04:03;16.60;99.90
18456;DHT22;9357;49.900;8.208;2023-05-17T10:05:36;16.50;99.90